Time;durP1;ratioP1;P1;durP2;ratioP2;P2;SDS_P1;SDS_P2;PMS_P1;PMS_P2;Temp;Humidity;BMP_temperature;BMP_pressure;BME280_temperature;BME280_humidity;BME280_pressure;Samples;Min_cycle;Max_cycle;Signal;HPM_P1;HPM_P2
2021/04/01 00:01:26;;;;;;;5.67;3.15;;;;;;;7.14;68.94;98233.05;1821638;77;21172;-64
2021/04/01 00:03:54;;;;;;;7.22;2.87;;;;;;;7.13;68.76;98233.97;1821551;77;21236;-68
2021/04/01 00:06:23;;;;;;;8.78;3.75;;;;;;;7.11;71.26;98222.95;1821805;77;21124;-64
2021/04/01 00:08:51;;;;;;;9.28;4.60;;;;;;;7.06;71.45;98221.17;1774295;79;21227;-63
2021/04/01 00:11:19;;;;;;;6.00;3.50;;;;;;;7.02;72.54;98222.80;1774522;79;21521;-64
2021/04/01 00:13:47;;;;;;;6.62;3.10;;;;;;;7.02;71.42;98220.22;1774451;79;21278;-64
2021/04/01 00:16:19;;;;;;;6.37;3.00;;;;;;;7.02;72.32;98218.46;1774521;79;21132;-64
2021/04/01 00:18:46;;;;;;;4.87;3.25;;;;;;;7.00;72.82;98223.39;1774764;79;21129;-64
2021/04/01 00:21:15;;;;;;;6.80;3.45;;;;;;;6.98;73.58;98218.80;1774653;79;21581;-64
2021/04/01 00:23:43;;;;;;;8.08;4.00;;;;;;;6.94;72.74;98217.37;1774466;79;21159;-64
2021/04/01 00:26:12;;;;;;;5.58;3.17;;;;;;;6.95;70.51;98217.27;1774583;79;21171;-64
2021/04/01 00:28:40;;;;;;;4.67;3.10;;;;;;;6.97;70.33;98220.55;1774651;79;21576;-68
2021/04/01 00:31:08;;;;;;;8.23;3.00;;;;;;;6.97;69.18;98214.09;1774390;79;21724;-68
2021/04/01 00:33:36;;;;;;;6.75;2.80;;;;;;;6.97;71.34;98213.27;1774765;79;21169;-68
2021/04/01 00:36:06;;;;;;;6.60;3.22;;;;;;;6.96;71.63;98209.06;1774402;79;21183;-68
2021/04/01 00:38:34;;;;;;;8.08;3.55;;;;;;;6.92;70.46;98208.47;1774353;79;21302;-68
2021/04/01 00:41:02;;;;;;;7.80;4.05;;;;;;;6.90;70.69;98207.75;1774208;79;21191;-69
2021/04/01 00:43:30;;;;;;;7.55;3.67;;;;;;;6.85;70.25;98207.25;1782862;79;21127;-69
2021/04/01 00:45:58;;;;;;;6.72;3.55;;;;;;;6.83;69.15;98206.56;1774379;79;21191;-64
2021/04/01 00:48:27;;;;;;;11.15;4.20;;;;;;;6.78;70.49;98206.53;1774474;79;21152;-64
2021/04/01 00:50:56;;;;;;;8.38;3.87;;;;;;;6.73;68.71;98206.87;1774887;79;21219;-64
2021/04/01 00:53:24;;;;;;;8.68;3.45;;;;;;;6.68;69.78;98205.11;1774424;79;21258;-63
2021/04/01 00:55:53;;;;;;;8.75;4.47;;;;;;;6.63;69.02;98205.45;1774636;79;21168;-62
2021/04/01 00:58:21;;;;;;;8.23;3.98;;;;;;;6.60;68.29;98197.11;1774489;79;21583;-66
2021/04/01 01:01:02;;;;;;;9.78;4.95;;;;;;;6.55;70.57;98202.59;1751206;79;21127;-66
2021/04/01 01:03:20;;;;;;;7.45;4.83;;;;;;;6.47;72.32;98196.34;1772774;79;21533;-66
2021/04/01 01:05:48;;;;;;;9.83;4.78;;;;;;;6.41;72.85;98190.36;1774412;80;21236;-69
2021/04/01 01:08:16;;;;;;;7.53;4.03;;;;;;;6.37;70.21;98188.93;1774417;79;21567;-67
2021/04/01 01:10:44;;;;;;;6.45;3.20;;;;;;;6.35;69.91;98186.45;1774525;79;21575;-67
2021/04/01 01:13:13;;;;;;;6.33;4.08;;;;;;;6.35;68.93;98180.46;1774536;80;21156;-68
2021/04/01 01:15:41;;;;;;;11.08;4.35;;;;;;;6.31;72.24;98179.04;1774437;79;21149;-67
2021/04/01 01:18:09;;;;;;;15.03;3.10;;;;;;;6.29;70.89;98182.20;1774310;79;21333;-67
2021/04/01 01:20:38;;;;;;;6.35;3.52;;;;;;;6.26;71.69;98177.28;1774400;79;21281;-67
2021/04/01 01:23:10;;;;;;;4.42;2.75;;;;;;;6.25;70.19;98175.16;1772944;79;21144;-67
2021/04/01 01:25:42;;;;;;;6.67;3.33;;;;;;;6.24;74.48;98172.68;1774618;79;21124;-67
2021/04/01 01:28:11;;;;;;;5.95;2.77;;;;;;;6.22;70.59;98171.52;1774558;79;21135;-68
2021/04/01 01:30:39;;;;;;;4.53;3.25;;;;;;;6.22;68.60;98166.83;1750827;80;21170;-68
2021/04/01 01:33:16;;;;;;;8.30;3.70;;;;;;;6.19;69.10;98161.41;1774510;80;21608;-67
2021/04/01 01:35:40;;;;;;;6.85;4.37;;;;;;;6.15;68.50;98159.52;1774175;79;21258;-67
2021/04/01 01:38:09;;;;;;;7.03;4.28;;;;;;;6.11;71.11;98152.94;1774437;79;21345;-67
2021/04/01 01:40:38;;;;;;;9.93;4.80;;;;;;;6.08;69.14;98153.62;1774467;79;21147;-67
2021/04/01 01:43:10;;;;;;;9.63;4.00;;;;;;;6.05;68.60;98154.67;1774377;80;21680;-67
2021/04/01 01:45:43;;;;;;;7.20;4.17;;;;;;;6.00;70.10;98154.17;1782761;79;21103;-67
2021/04/01 01:48:16;;;;;;;6.90;3.35;;;;;;;5.97;69.61;98156.15;1774583;80;21310;-67
2021/04/01 01:50:44;;;;;;;7.03;3.58;;;;;;;5.94;69.47;98155.09;1774360;79;21117;-67
2021/04/01 01:53:12;;;;;;;5.40;2.95;;;;;;;5.92;72.17;98150.48;1774400;80;21864;-67
2021/04/01 01:55:41;;;;;;;8.18;3.42;;;;;;;5.88;72.80;98148.59;1774543;79;21117;-63
2021/04/01 01:58:11;;;;;;;6.97;3.30;;;;;;;5.86;72.40;98149.19;1750961;80;21655;-63
2021/04/01 02:00:44;;;;;;;5.78;3.17;;;;;;;5.85;73.29;98152.66;1744133;81;21314;-67
2021/04/01 02:03:13;;;;;;;5.10;3.67;;;;;;;5.85;75.07;98147.50;1774277;79;21125;-67
2021/04/01 02:05:42;;;;;;;6.78;2.85;;;;;;;5.83;76.31;98149.37;1774496;80;21195;-67
2021/04/01 02:08:13;;;;;;;4.45;2.47;;;;;;;5.81;75.38;98148.65;1770324;79;21158;-67
2021/04/01 02:10:45;;;;;;;6.37;3.17;;;;;;;5.83;76.59;98140.83;1762339;80;21655;-69
2021/04/01 02:13:18;;;;;;;3.47;2.00;;;;;;;5.84;77.08;98144.56;1803035;78;21185;-67
2021/04/01 02:15:50;;;;;;;4.08;1.82;;;;;;;5.83;76.88;98142.11;1762206;80;21175;-69
2021/04/01 02:18:28;;;;;;;5.12;2.02;;;;;;;5.84;76.65;98135.54;1761981;80;21143;-67
2021/04/01 02:21:00;;;;;;;2.75;1.85;;;;;;;5.86;76.75;98140.16;1803011;78;21150;-68
2021/04/01 02:23:31;;;;;;;5.58;3.12;;;;;;;5.88;75.97;98138.28;1803271;78;21135;-67
2021/04/01 02:26:01;;;;;;;5.00;2.77;;;;;;;5.88;77.04;98137.46;1803028;79;21139;-67
2021/04/01 02:28:32;;;;;;;5.50;3.65;;;;;;;5.92;76.05;98133.27;1802729;78;21582;-67
2021/04/01 02:31:05;;;;;;;4.20;2.20;;;;;;;5.90;76.77;98142.88;1802815;78;21670;-67
2021/04/01 02:33:36;;;;;;;2.67;1.80;;;;;;;5.93;75.88;98130.23;1802823;78;21542;-67
2021/04/01 02:36:06;;;;;;;5.72;3.45;;;;;;;5.95;74.66;98138.70;1803125;78;21284;-68
2021/04/01 02:38:35;;;;;;;4.47;2.67;;;;;;;5.93;76.04;98143.95;1762192;80;21572;-68
2021/04/01 02:41:03;;;;;;;3.05;1.85;;;;;;;5.82;76.94;98128.40;1762170;80;21160;-67
2021/04/01 02:43:35;;;;;;;2.42;1.98;;;;;;;5.87;75.83;98131.52;1762065;80;21143;-69
2021/04/01 02:46:05;;;;;;;3.90;2.05;;;;;;;5.89;75.91;98127.05;1762233;80;21187;-66
2021/04/01 02:48:34;;;;;;;5.10;2.42;;;;;;;5.93;73.78;98132.34;1761986;80;21124;-66
2021/04/01 02:51:02;;;;;;;3.00;1.67;;;;;;;5.95;73.80;98126.60;1761969;80;21155;-68
2021/04/01 02:53:30;;;;;;;3.65;2.15;;;;;;;5.97;73.51;98131.20;1762158;80;21585;-67
2021/04/01 02:55:58;;;;;;;3.87;2.12;;;;;;;5.99;73.73;98130.61;1762292;80;21651;-67
2021/04/01 02:58:27;;;;;;;5.55;2.42;;;;;;;6.00;74.94;98121.95;1762086;80;21564;-67
2021/04/01 03:00:56;;;;;;;7.00;2.75;;;;;;;6.01;73.44;98120.20;1762237;80;21222;-67
2021/04/01 03:03:37;;;;;;;4.92;2.37;;;;;;;6.03;73.25;98118.34;1762193;80;21147;-68
2021/04/01 03:06:04;;;;;;;3.67;2.83;;;;;;;6.03;73.92;98121.72;1762367;80;21119;-68
2021/04/01 03:08:33;;;;;;;4.12;2.60;;;;;;;6.01;73.87;98126.64;1766892;79;21159;-69
2021/04/01 03:11:01;;;;;;;3.33;2.42;;;;;;;6.02;73.37;98125.72;1751181;79;22551;-68
2021/04/01 03:13:29;;;;;;;3.98;2.42;;;;;;;5.99;73.29;98119.01;1774603;79;21607;-68
2021/04/01 03:15:57;;;;;;;3.75;2.47;;;;;;;5.98;73.24;98121.25;1774365;79;21143;-68
2021/04/01 03:18:25;;;;;;;7.08;2.22;;;;;;;5.97;72.79;98119.59;1774417;79;21604;-68
2021/04/01 03:24:31;;;;;;;6.40;2.83;;;;;;;5.95;73.16;98110.34;1815684;79;21665;-67
2021/04/01 03:30:43;;;;;;;5.83;3.35;;;;;;;5.92;73.45;98112.66;1815696;79;21094;-66
2021/04/01 03:36:34;;;;;;;3.22;2.02;;;;;;;5.83;74.43;98099.59;1816172;79;21102;-68
2021/04/01 03:42:40;;;;;;;36.73;20.45;;;;;;;5.79;75.31;98104.14;1816606;79;21561;-65
2021/04/01 03:48:46;;;;;;;28.92;9.60;;;;;;;5.81;74.02;98098.40;1852949;77;21088;-64
2021/04/01 03:54:56;;;;;;;3.98;2.92;;;;;;;5.84;76.27;98099.92;1815689;79;21098;-64
2021/04/01 04:17:37;;;;;;;7.12;3.80;;;;;;;5.71;75.40;98098.25;1815610;79;21094;-65
2021/04/01 04:23:09;;;;;;;6.62;3.67;;;;;;;5.64;74.54;98096.22;1817920;79;21139;-65
2021/04/01 04:25:38;;;;;;;5.75;3.27;;;;;;;5.61;74.16;98099.81;1819889;79;21128;-64
2021/04/01 04:30:46;;;;;;;4.85;2.72;;;;;;;5.54;75.32;98106.80;1760961;79;21549;-63
2021/04/01 04:33:14;;;;;;;4.80;3.22;;;;;;;5.49;76.02;98099.39;1785948;80;21174;-65
2021/04/01 04:35:42;;;;;;;3.87;2.80;;;;;;;5.46;76.59;98106.50;1819848;79;21141;-64
2021/04/01 04:38:10;;;;;;;5.47;2.95;;;;;;;5.39;77.47;98102.27;1785967;80;21172;-66
2021/04/01 04:40:39;;;;;;;5.67;2.67;;;;;;;5.35;77.96;98102.11;1819713;77;21133;-68
2021/04/01 04:43:07;;;;;;;6.13;3.50;;;;;;;5.35;77.18;98100.00;1819804;78;21141;-66
2021/04/01 04:45:35;;;;;;;9.05;3.60;;;;;;;5.39;81.18;98106.58;1819732;79;21129;-65
2021/04/01 04:48:04;;;;;;;5.20;2.52;;;;;;;5.37;79.89;98104.59;1819811;78;21187;-65
2021/04/01 04:50:31;;;;;;;6.72;3.58;;;;;;;5.41;80.08;98103.45;1819696;79;21159;-65
2021/04/01 04:53:00;;;;;;;5.35;3.55;;;;;;;5.43;80.21;98105.44;1786032;80;21167;-65
2021/04/01 04:55:28;;;;;;;4.42;2.60;;;;;;;5.45;79.43;98103.10;1819871;79;21183;-65
2021/04/01 04:58:04;;;;;;;3.80;2.95;;;;;;;5.49;79.04;98099.39;1820011;78;21156;-64
2021/04/01 05:05:47;;;;;;;9.10;2.85;;;;;;;5.74;77.13;98098.48;1785822;80;21176;-64
2021/04/01 05:08:16;;;;;;;7.75;4.20;;;;;;;5.84;76.01;98110.23;1819734;79;21647;-64
2021/04/01 05:10:47;;;;;;;6.95;3.40;;;;;;;5.91;75.41;98102.47;1786082;80;21120;-64
2021/04/01 05:13:15;;;;;;;13.68;5.30;;;;;;;5.97;76.39;98102.84;1819888;78;21140;-65
2021/04/01 05:15:49;;;;;;;17.12;6.83;;;;;;;6.02;75.65;98098.66;1819669;79;21196;-64
2021/04/01 05:18:30;;;;;;;11.18;4.58;;;;;;;6.09;75.12;98104.54;1819550;78;21192;-66
2021/04/01 05:20:59;;;;;;;11.25;3.92;;;;;;;6.17;73.88;98106.56;1819533;77;21117;-65
2021/04/01 05:23:36;;;;;;;14.05;5.22;;;;;;;6.26;74.70;98101.20;1860136;77;21104;-64
2021/04/01 05:28:50;;;;;;;9.70;3.20;;;;;;;6.30;75.71;98103.45;1852669;77;21160;-65
2021/04/01 05:31:18;;;;;;;4.83;2.30;;;;;;;6.33;75.32;98101.10;1819683;77;21163;-64
2021/04/01 05:33:48;;;;;;;6.80;3.52;;;;;;;6.37;75.04;98103.81;1852870;77;21108;-64
2021/04/01 05:36:27;;;;;;;9.33;4.60;;;;;;;6.44;74.92;98094.67;1852758;77;21211;-64
2021/04/01 05:39:06;;;;;;;9.20;4.12;;;;;;;6.54;74.63;98094.34;1858431;77;21134;-65
2021/04/01 05:41:34;;;;;;;5.40;2.80;;;;;;;6.64;74.44;98088.86;1861851;77;21545;-64
2021/04/01 05:44:34;;;;;;;4.17;2.72;;;;;;;6.72;73.78;98087.82;1861569;77;21170;-64
2021/04/01 05:47:20;;;;;;;4.83;2.60;;;;;;;6.79;73.78;98089.45;1810267;78;21109;-64
2021/04/01 06:03:58;;;;;;;4.90;2.83;;;;;;;7.27;72.55;98083.13;1748464;81;21566;-65
2021/04/01 06:06:39;;;;;;;4.20;2.52;;;;;;;7.43;71.56;98081.47;1748105;81;21644;-65
2021/04/01 06:09:02;;;;;;;5.03;2.85;;;;;;;7.58;71.25;98083.67;1746878;81;21771;-66
2021/04/01 06:11:31;;;;;;;7.33;3.40;;;;;;;7.70;71.31;98081.88;1748257;81;21283;-65
2021/04/01 06:14:11;;;;;;;5.12;3.20;;;;;;;7.77;70.96;98077.86;1748094;81;21312;-65
2021/04/01 06:16:45;;;;;;;6.33;3.30;;;;;;;7.89;70.72;98079.94;1748425;81;21156;-68
2021/04/01 06:19:17;;;;;;;5.30;3.30;;;;;;;8.02;70.28;98076.22;1748510;81;21176;-65
2021/04/01 06:21:49;;;;;;;6.12;3.42;;;;;;;8.12;70.13;98076.31;1748330;81;21310;-65
2021/04/01 06:24:27;;;;;;;3.92;2.65;;;;;;;8.21;69.64;98081.22;1748198;81;21339;-65
2021/04/01 06:27:11;;;;;;;5.90;2.67;;;;;;;8.33;69.33;98077.63;1748203;82;21322;-65
2021/04/01 06:29:37;;;;;;;3.17;2.72;;;;;;;8.43;68.72;98078.53;1747453;81;21122;-64
2021/04/01 06:32:22;;;;;;;6.55;3.10;;;;;;;8.61;68.54;98068.41;1748155;81;21169;-64
2021/04/01 06:34:50;;;;;;;5.53;2.62;;;;;;;8.78;68.16;98067.84;1748324;82;21626;-65
2021/04/01 06:40:26;;;;;;;5.30;2.27;;;;;;;9.11;67.26;98066.27;1748187;82;21208;-65
2021/04/01 06:43:02;;;;;;;4.90;2.62;;;;;;;9.30;66.31;98066.83;1771039;81;21185;-65
2021/04/01 06:45:30;;;;;;;;;;;;;;;9.50;66.06;98063.31;1798502;79;21585;-65
2021/04/01 06:47:59;;;;;;;4.45;2.50;;;;;;;9.69;66.29;98062.55;1802975;79;20151;-65
2021/04/01 06:50:34;;;;;;;6.37;3.90;;;;;;;9.83;65.14;98059.55;1801186;80;21147;-65
2021/04/01 06:53:10;;;;;;;8.23;3.20;;;;;;;10.06;67.42;98053.61;1802969;79;21160;-65
2021/04/01 06:55:47;;;;;;;6.00;3.05;;;;;;;10.29;65.63;98059.70;1765087;81;21159;-65
2021/04/01 06:58:39;;;;;;;5.60;2.80;;;;;;;10.54;64.28;98053.59;1734852;81;21138;-65
2021/04/01 07:01:27;;;;;;;6.33;3.30;;;;;;;10.72;64.55;98054.02;1778356;80;21320;-65
2021/04/01 07:03:52;;;;;;;6.33;2.95;;;;;;;10.92;62.38;98047.80;1776834;80;21136;-66
2021/04/01 07:06:42;;;;;;;7.05;2.90;;;;;;;11.08;62.30;98041.98;1815682;78;21171;-66
2021/04/01 07:12:22;;;;;;;5.67;3.08;;;;;;;11.49;61.76;98041.96;1746063;82;21159;-66
2021/04/01 07:15:13;;;;;;;3.42;1.60;;;;;;;11.70;59.85;98039.92;1746219;82;21159;-64
2021/04/01 07:17:45;;;;;;;2.87;2.37;;;;;;;11.90;60.45;98040.12;1815801;78;21157;-65
2021/04/01 07:48:52;;;;;;;8.60;5.80;;;;;;;13.15;54.55;98018.52;1735532;81;21129;-65
2021/04/01 07:51:58;;;;;;;9.53;5.08;;;;;;;13.39;54.51;98012.53;1735392;82;21310;-66
2021/04/01 07:53:59;;;;;;;11.85;4.30;;;;;;;13.36;54.44;98005.85;1696078;83;21226;-66
2021/04/01 07:56:32;;;;;;;15.25;5.55;;;;;;;13.45;55.21;98002.78;1735545;81;21708;-66
2021/04/01 08:04:31;;;;;;;11.80;5.33;;;;;;;13.76;54.46;97990.28;1722382;83;21148;-66
2021/04/01 08:07:13;;;;;;;6.50;4.08;;;;;;;13.88;54.27;97991.27;1722574;83;21276;-66
2021/04/01 08:09:48;;;;;;;6.05;3.80;;;;;;;14.08;53.94;97992.58;1777605;81;21115;-66
2021/04/01 08:15:30;;;;;;;8.90;4.72;;;;;;;14.41;52.93;97988.16;1784567;80;21132;-66
2021/04/01 08:18:10;;;;;;;17.17;4.87;;;;;;;14.66;52.87;97982.73;1724467;82;21255;-65
2021/04/01 08:20:34;;;;;;;6.80;4.12;;;;;;;14.77;52.39;97980.23;1769882;80;21148;-64
2021/04/01 08:23:12;;;;;;;6.97;3.62;;;;;;;14.89;51.98;97976.28;1768683;80;21577;-64
2021/04/01 08:25:51;;;;;;;9.93;3.92;;;;;;;15.03;51.74;97972.13;1767389;81;21656;-64
2021/04/01 08:28:32;;;;;;;8.38;4.42;;;;;;;15.19;51.45;97968.13;1767388;81;21137;-64
2021/04/01 08:34:31;;;;;;;9.88;4.10;;;;;;;15.31;51.06;97971.98;1767314;81;21141;-64
2021/04/01 08:36:51;;;;;;;3.70;2.22;;;;;;;15.57;50.58;97956.80;1794531;79;21571;-65
2021/04/01 08:39:23;;;;;;;5.50;3.20;;;;;;;15.89;50.16;97957.55;1793618;80;21144;-65
2021/04/01 08:42:18;;;;;;;6.10;3.08;;;;;;;15.81;49.93;97949.76;1789613;80;21143;-67
2021/04/01 08:45:45;;;;;;;4.15;2.10;;;;;;;15.93;49.84;97949.66;1757796;81;21651;-66
2021/04/01 08:48:44;;;;;;;3.75;2.02;;;;;;;16.17;49.39;97945.53;1758390;81;21198;-64
2021/04/01 08:51:55;;;;;;;3.72;2.33;;;;;;;16.28;49.29;97939.03;1758358;81;21301;-65
2021/04/01 08:54:30;;;;;;;2.85;1.92;;;;;;;16.48;48.75;97940.95;1780936;79;21162;-67
2021/04/01 09:00:11;;;;;;;7.10;2.75;;;;;;;16.45;48.29;97933.45;1759656;81;21124;-67
2021/04/01 09:02:53;;;;;;;5.75;2.65;;;;;;;16.84;48.16;97932.39;1795033;79;21146;-66
2021/04/01 09:05:23;;;;;;;7.08;2.50;;;;;;;17.15;47.94;97922.47;1794980;80;21148;-66
2021/04/01 09:08:03;;;;;;;4.20;2.10;;;;;;;17.49;47.36;97922.63;1795147;78;21469;-67
2021/04/01 09:10:33;;;;;;;2.87;1.47;;;;;;;17.76;46.29;97922.41;1794492;78;21140;-68
2021/04/01 09:13:10;;;;;;;5.53;2.08;;;;;;;18.20;45.03;97918.70;1795163;80;21603;-66
2021/04/01 09:18:27;;;;;;;6.08;2.50;;;;;;;18.72;43.89;97909.02;1795635;80;21128;-65
2021/04/01 09:20:59;;;;;;;5.47;2.33;;;;;;;18.78;42.98;97909.07;1795425;79;21191;-66
2021/04/01 09:23:42;;;;;;;5.67;2.22;;;;;;;19.02;42.42;97906.94;1795507;80;21127;-65
2021/04/01 09:26:13;;;;;;;3.92;1.82;;;;;;;19.50;43.96;97898.45;1794952;80;21162;-64
2021/04/01 09:28:44;;;;;;;4.22;1.60;;;;;;;20.10;43.93;97895.66;1795127;78;21596;-65
2021/04/01 09:31:14;;;;;;;4.25;1.37;;;;;;;20.60;40.11;97892.84;1795142;79;21166;-65
2021/04/01 09:33:43;;;;;;;2.62;1.55;;;;;;;21.12;38.86;97876.02;1795131;78;21210;-65
2021/04/01 09:36:22;;;;;;;2.70;1.95;;;;;;;21.61;39.56;97885.05;1795062;80;21167;-65
2021/04/01 09:39:07;;;;;;;4.10;2.12;;;;;;;21.68;36.85;97881.33;1795167;78;21190;-67
2021/04/01 09:41:30;;;;;;;5.47;2.22;;;;;;;21.47;35.80;97884.34;1793073;78;21171;-65
2021/04/01 09:44:08;;;;;;;2.40;1.62;;;;;;;21.83;35.88;97879.68;1794973;80;21190;-66
2021/04/01 09:46:50;;;;;;;11.05;3.52;;;;;;;21.82;35.31;97875.95;1795058;80;21191;-65
2021/04/01 09:49:20;;;;;;;3.65;2.00;;;;;;;21.94;34.94;97868.97;1795198;78;21516;-68
2021/04/01 09:51:54;;;;;;;3.85;2.47;;;;;;;21.24;36.17;97870.34;1795069;80;21599;-69
2021/04/01 09:54:26;;;;;;;6.12;2.47;;;;;;;21.21;36.20;97857.56;1795569;78;21151;-68
2021/04/01 09:56:56;;;;;;;3.45;1.92;;;;;;;21.16;36.26;97859.23;1795084;79;21194;-65
2021/04/01 10:02:28;;;;;;;4.08;2.00;;;;;;;21.59;35.44;97858.04;1816968;78;21560;-68
2021/04/01 10:05:03;;;;;;;3.05;1.82;;;;;;;22.11;33.99;97850.17;1816450;79;21300;-68
2021/04/01 10:07:34;;;;;;;6.17;2.67;;;;;;;22.88;33.33;97847.42;1816004;79;21147;-68
2021/04/01 10:10:06;;;;;;;5.60;3.10;;;;;;;22.21;33.76;97844.70;1816530;79;21742;-69
2021/04/01 10:12:38;;;;;;;5.62;2.87;;;;;;;22.81;32.96;97837.41;1816713;79;21194;-68
2021/04/01 10:15:13;;;;;;;3.98;2.72;;;;;;;23.69;32.77;97831.78;1816531;79;21241;-68
2021/04/01 10:18:01;;;;;;;3.98;2.67;;;;;;;23.75;31.51;97825.55;1816659;78;21136;-68
2021/04/01 10:20:29;;;;;;;6.55;2.90;;;;;;;23.41;31.90;97817.82;1789771;79;21198;-65
2021/04/01 10:23:08;;;;;;;4.60;2.33;;;;;;;23.69;31.60;97812.41;1789524;79;21159;-65
2021/04/01 10:25:50;;;;;;;8.08;2.60;;;;;;;24.86;31.98;97807.27;1816331;79;21668;-68
2021/04/01 10:28:22;;;;;;;3.20;1.90;;;;;;;25.35;29.49;97801.75;1816944;78;21155;-68
2021/04/01 10:30:46;;;;;;;3.10;1.82;;;;;;;25.95;28.51;97806.70;1783770;80;21226;-69
2021/04/01 10:33:35;;;;;;;4.75;2.77;;;;;;;26.81;30.53;97806.50;1784429;80;21159;-69
2021/04/01 10:36:08;;;;;;;3.77;2.40;;;;;;;27.47;27.26;97799.73;1784412;80;21265;-69
2021/04/01 10:38:37;;;;;;;4.72;2.27;;;;;;;27.94;25.90;97793.14;1784313;80;21722;-69
2021/04/01 10:41:18;;;;;;;5.40;2.27;;;;;;;28.48;24.48;97791.81;1784568;80;21186;-70
2021/04/01 10:43:49;;;;;;;5.08;2.70;;;;;;;28.66;23.93;97787.36;1784289;80;21163;-70
2021/04/01 10:46:21;;;;;;;4.78;2.60;;;;;;;28.48;23.52;97785.70;1784413;80;21127;-66
2021/04/01 10:49:00;;;;;;;4.60;2.35;;;;;;;28.21;23.94;97774.61;1784671;80;21178;-66
2021/04/01 10:51:29;;;;;;;4.87;2.35;;;;;;;27.83;24.59;97771.71;1784427;80;21580;-66
2021/04/01 10:54:15;;;;;;;5.20;3.27;;;;;;;27.58;24.47;97754.22;1760191;80;21162;-66
2021/04/01 10:56:55;;;;;;;3.60;2.50;;;;;;;28.02;26.14;97767.27;1751266;80;21124;-65
2021/04/01 10:59:46;;;;;;;4.30;2.77;;;;;;;26.37;26.52;97763.13;1781456;80;21171;-68
2021/04/01 11:02:22;;;;;;;4.53;2.62;;;;;;;26.61;26.56;97769.00;1781402;80;21218;-70
2021/04/01 11:05:24;;;;;;;2.95;2.40;;;;;;;25.97;27.06;97759.39;1810032;79;21156;-65
2021/04/01 11:08:06;;;;;;;4.45;2.17;;;;;;;26.17;27.21;97756.72;1782124;80;21162;-65
2021/04/01 11:10:36;;;;;;;5.83;3.12;;;;;;;26.63;27.09;97751.42;1785247;80;21252;-65
2021/04/01 11:13:07;;;;;;;3.27;2.30;;;;;;;25.79;27.66;97744.24;1785271;80;21146;-65
2021/04/01 11:15:41;;;;;;;5.30;3.02;;;;;;;27.13;26.20;97735.15;1785286;80;21147;-66
2021/04/01 11:18:18;;;;;;;4.22;3.08;;;;;;;26.47;26.14;97736.33;1785290;80;21559;-66
2021/04/01 11:20:51;;;;;;;5.78;2.70;;;;;;;25.59;28.10;97738.63;1785308;80;21174;-67
2021/04/01 11:23:24;;;;;;;3.22;2.20;;;;;;;26.40;27.68;97736.53;1785882;80;21158;-67
2021/04/01 11:25:56;;;;;;;3.85;2.37;;;;;;;27.85;26.09;97727.44;1785683;80;21158;-67
2021/04/01 11:28:50;;;;;;;4.03;2.37;;;;;;;28.34;24.01;97716.45;1785440;80;21174;-66
2021/04/01 11:31:26;;;;;;;3.12;1.92;;;;;;;28.03;24.58;97723.51;1785327;80;21555;-67
2021/04/01 11:33:57;;;;;;;6.78;2.58;;;;;;;27.46;25.23;97714.08;1785503;79;21571;-67
2021/04/01 11:36:38;;;;;;;4.72;2.55;;;;;;;26.57;26.24;97714.63;1785567;80;21119;-65
2021/04/01 11:39:03;;;;;;;4.20;2.27;;;;;;;26.51;26.44;97714.80;1785382;80;21130;-65
2021/04/01 11:41:33;;;;;;;4.12;2.35;;;;;;;26.97;26.17;97709.42;1782188;80;21591;-65
2021/04/01 11:44:01;;;;;;;5.47;2.98;;;;;;;26.59;26.28;97706.37;1780634;80;21229;-64
2021/04/01 11:46:31;;;;;;;4.75;2.75;;;;;;;26.04;27.06;97698.00;1785190;80;21150;-66
2021/04/01 11:49:00;;;;;;;7.75;2.80;;;;;;;25.10;28.54;97694.50;1785360;80;21127;-66
2021/04/01 11:51:36;;;;;;;4.20;2.50;;;;;;;24.41;29.43;97693.01;1785379;80;21579;-69
2021/04/01 11:54:08;;;;;;;7.92;4.50;;;;;;;24.73;28.64;97694.14;1785456;80;21147;-69
2021/04/01 11:56:41;;;;;;;19.75;11.05;;;;;;;25.75;27.46;97692.06;1785349;80;21555;-66
2021/04/01 11:59:18;;;;;;;12.55;4.28;;;;;;;26.54;26.09;97681.82;1785324;80;21600;-65
2021/04/01 12:01:52;;;;;;;5.08;2.80;;;;;;;26.51;25.99;97672.20;1785445;80;21371;-67
2021/04/01 12:04:24;;;;;;;4.60;2.10;;;;;;;27.56;24.94;97673.63;1785546;80;21622;-68
2021/04/01 12:06:53;;;;;;;2.55;1.80;;;;;;;28.51;23.80;97663.09;1786144;80;21572;-67
2021/04/01 12:09:22;;;;;;;4.05;2.08;;;;;;;29.65;24.15;97667.89;1734347;81;21195;-69
2021/04/01 12:11:50;;;;;;;3.52;2.22;;;;;;;30.36;22.04;97666.30;1752713;82;21541;-70
2021/04/01 12:14:19;;;;;;;3.55;2.45;;;;;;;31.07;21.75;97657.81;1718751;83;21145;-69
2021/04/01 12:16:47;;;;;;;5.28;2.27;;;;;;;30.38;21.78;97653.44;1752421;81;21317;-70
2021/04/01 12:19:16;;;;;;;4.85;2.70;;;;;;;30.63;21.32;97651.14;1752677;82;21198;-69
2021/04/01 12:21:44;;;;;;;3.85;2.80;;;;;;;30.81;21.41;97648.35;1757304;80;21332;-68
2021/04/01 12:24:14;;;;;;;5.97;2.70;;;;;;;30.50;21.82;97645.90;1719365;81;21171;-69
2021/04/01 12:26:48;;;;;;;3.50;2.58;;;;;;;30.44;21.76;97642.97;1787448;80;21129;-68
2021/04/01 12:29:17;;;;;;;5.45;3.17;;;;;;;31.00;21.47;97636.69;1785259;79;21183;-66
2021/04/01 12:31:58;;;;;;;5.58;3.20;;;;;;;30.78;21.13;97639.53;1787519;79;21145;-69
2021/04/01 12:34:30;;;;;;;4.75;3.00;;;;;;;29.31;22.69;97636.14;1785170;79;21163;-69
2021/04/01 12:37:03;;;;;;;5.60;3.60;;;;;;;29.08;22.94;97633.48;1787407;80;21130;-68
2021/04/01 12:39:38;;;;;;;4.90;3.60;;;;;;;28.66;23.70;97619.56;1788106;80;21539;-69
2021/04/01 12:42:07;;;;;;;4.12;2.67;;;;;;;28.19;24.40;97615.22;1785850;79;21111;-68
2021/04/01 12:44:41;;;;;;;3.62;2.65;;;;;;;28.57;23.89;97611.80;1787685;80;21577;-70
2021/04/01 12:47:13;;;;;;;3.90;2.58;;;;;;;28.70;23.81;97609.98;1785179;79;21163;-70
2021/04/01 12:49:41;;;;;;;7.95;2.98;;;;;;;29.46;23.33;97601.86;1785273;80;21174;-70
2021/04/01 12:52:10;;;;;;;6.67;2.90;;;;;;;29.27;23.13;97604.83;1787429;80;21560;-69
2021/04/01 12:54:41;;;;;;;5.25;2.75;;;;;;;29.72;22.93;97596.70;1784911;79;21116;-69
2021/04/01 12:57:17;;;;;;;3.52;2.20;;;;;;;30.21;22.82;97602.09;1787550;79;21225;-70
2021/04/01 12:59:50;;;;;;;5.05;3.55;;;;;;;31.33;21.90;97593.97;1783769;80;21126;-67
2021/04/01 13:02:23;;;;;;;3.70;2.62;;;;;;;30.77;21.92;97591.02;1784740;79;21139;-68
2021/04/01 13:07:45;;;;;;;5.45;3.08;;;;;;;30.82;21.21;97577.01;1779554;79;23584;-68
2021/04/01 13:12:42;;;;;;;4.55;2.00;;;;;;;31.31;21.43;97567.45;1753430;81;21230;-64
2021/04/01 13:15:12;;;;;;;4.15;2.22;;;;;;;31.23;21.42;97567.27;1748310;82;21209;-66
2021/04/01 13:17:40;;;;;;;70.55;38.98;;;;;;;31.00;21.44;97564.29;1723379;82;21167;-66
2021/04/01 13:20:11;;;;;;;41.63;26.45;;;;;;;30.61;21.55;97564.34;1695181;83;21176;-67
2021/04/01 13:22:56;;;;;;;33.88;20.32;;;;;;;30.59;22.42;97558.45;1691334;83;21583;-65
2021/04/01 13:25:17;;;;;;;10.23;6.75;;;;;;;30.81;21.93;97556.67;1689171;85;21563;-66
2021/04/01 13:27:47;;;;;;;3.17;2.35;;;;;;;30.80;21.28;97550.23;1684069;85;21564;-66
2021/04/01 13:30:18;;;;;;;6.17;2.02;;;;;;;30.11;21.61;97545.94;1691320;85;21171;-67
2021/04/01 13:33:01;;;;;;;3.20;2.02;;;;;;;30.08;22.15;97546.47;1691383;84;21183;-66
2021/04/01 13:38:00;;;;;;;2.17;1.73;;;;;;;30.02;22.56;97540.36;1691792;83;21221;-67
2021/04/01 13:40:26;;;;;;;2.72;1.65;;;;;;;29.96;22.61;97540.68;1691303;85;21671;-67
2021/04/01 13:42:57;;;;;;;2.75;2.08;;;;;;;29.66;22.67;97534.37;1691389;83;21170;-66
2021/04/01 13:45:25;;;;;;;4.47;2.33;;;;;;;28.80;23.31;97533.80;1691547;84;21199;-65
2021/04/01 13:48:01;;;;;;;2.87;2.20;;;;;;;27.96;24.41;97531.59;1684309;85;21678;-65
2021/04/01 13:50:30;;;;;;;2.77;1.90;;;;;;;27.53;25.07;97528.00;1684242;85;21184;-66
2021/04/01 13:53:17;;;;;;;3.83;2.33;;;;;;;27.12;25.65;97517.67;1681639;84;21161;-65
2021/04/01 13:55:41;;;;;;;10.68;2.22;;;;;;;26.97;26.03;97522.88;1683841;84;21373;-66
2021/04/01 14:10:06;;;;;;;1.85;1.37;;;;;;;27.69;25.54;97505.12;1672699;84;21141;-66
2021/04/01 14:12:34;;;;;;;26.50;13.20;;;;;;;28.48;24.83;97499.33;1696894;83;21175;-67
2021/04/01 14:15:07;;;;;;;13.20;7.90;;;;;;;29.01;23.54;97497.15;1696847;83;21174;-66
2021/04/01 14:17:38;;;;;;;2.42;1.85;;;;;;;29.54;22.94;97499.11;1696558;83;21674;-65
2021/04/01 14:20:11;;;;;;;2.05;1.75;;;;;;;29.94;22.30;97494.63;1696406;82;21176;-66
2021/04/01 14:22:41;;;;;;;4.72;2.20;;;;;;;30.69;23.43;97487.89;1696217;83;21175;-66
2021/04/01 14:25:18;;;;;;;4.67;1.92;;;;;;;30.94;21.67;97486.27;1696365;83;21186;-65
2021/04/01 14:27:45;;;;;;;2.90;2.20;;;;;;;30.10;21.81;97492.91;1695539;82;21227;-66